sensor_id;sensor_type;location;lat;lon;timestamp;temperature;humidity
17284;DHT22;8760;52.248;20.952;2022-09-01T00:00:23;13.90;1.00
17284;DHT22;8760;52.248;20.952;2022-09-01T00:02:53;13.90;99.90
17284;DHT22;8760;52.248;20.952;2022-09-01T00:05:20;13.80;99.90
17284;DHT22;8760;52.248;20.952;2022-09-01T00:07:47;13.80;1.00
17284;DHT22;8760;52.248;20.952;2022-09-01T00:10:15;13.70;1.00
17284;DHT22;8760;52.248;20.952;2022-09-01T00:12:42;13.70;99.90
17284;DHT22;8760;52.248;20.952;2022-09-01T00:15:12;13.60;99.90
17284;DHT22;8760;52.248;20.952;2022-09-01T00:17:39;13.50;99.90
17284;DHT22;8760;52.248;20.952;2022-09-01T00:20:06;13.50;99.90
17284;DHT22;8760;52.248;20.952;2022-09-01T00:22:34;13.50;1.00
17284;DHT22;8760;52.248;20.952;2022-09-01T00:25:01;13.40;99.90
17284;DHT22;8760;52.248;20.952;2022-09-01T00:27:28;13.30;99.90
17284;DHT22;8760;52.248;20.952;2022-09-01T00:29:54;13.30;99.90
17284;DHT22;8760;52.248;20.952;2022-09-01T00:32:22;13.30;1.00
17284;DHT22;8760;52.248;20.952;2022-09-01T00:34:49;13.30;1.00
17284;DHT22;8760;52.248;20.952;2022-09-01T00:37:16;13.20;1.00
17284;DHT22;8760;52.248;20.952;2022-09-01T00:39:43;13.20;1.00
17284;DHT22;8760;52.248;20.952;2022-09-01T00:42:10;13.10;99.50
17284;DHT22;8760;52.248;20.952;2022-09-01T00:44:37;13.20;99.90
17284;DHT22;8760;52.248;20.952;2022-09-01T00:47:03;13.10;99.90
17284;DHT22;8760;52.248;20.952;2022-09-01T00:49:36;13.10;99.90
17284;DHT22;8760;52.248;20.952;2022-09-01T00:52:07;13.00;99.90
17284;DHT22;8760;52.248;20.952;2022-09-01T00:54:37;13.00;99.90
17284;DHT22;8760;52.248;20.952;2022-09-01T00:57:06;13.00;99.90
17284;DHT22;8760;52.248;20.952;2022-09-01T00:59:35;12.90;1.00
17284;DHT22;8760;52.248;20.952;2022-09-01T01:02:04;12.90;1.00
17284;DHT22;8760;52.248;20.952;2022-09-01T01:04:32;12.80;1.00
17284;DHT22;8760;52.248;20.952;2022-09-01T01:06:59;12.80;1.00
17284;DHT22;8760;52.248;20.952;2022-09-01T01:09:31;12.70;1.00
17284;DHT22;8760;52.248;20.952;2022-09-01T01:11:59;12.70;1.00
17284;DHT22;8760;52.248;20.952;2022-09-01T01:14:27;12.70;1.00
17284;DHT22;8760;52.248;20.952;2022-09-01T01:16:57;12.60;1.00
17284;DHT22;8760;52.248;20.952;2022-09-01T01:19:31;12.60;1.00
17284;DHT22;8760;52.248;20.952;2022-09-01T01:22:28;12.60;1.00
17284;DHT22;8760;52.248;20.952;2022-09-01T01:25:17;12.50;1.00
17284;DHT22;8760;52.248;20.952;2022-09-01T01:27:47;12.50;1.00
17284;DHT22;8760;52.248;20.952;2022-09-01T01:30:14;12.50;1.00
17284;DHT22;8760;52.248;20.952;2022-09-01T01:32:43;12.50;1.00
17284;DHT22;8760;52.248;20.952;2022-09-01T01:35:14;12.40;1.00
17284;DHT22;8760;52.248;20.952;2022-09-01T01:37:47;12.40;1.00
17284;DHT22;8760;52.248;20.952;2022-09-01T01:40:18;12.30;1.00
17284;DHT22;8760;52.248;20.952;2022-09-01T01:42:48;12.30;1.00
17284;DHT22;8760;52.248;20.952;2022-09-01T01:45:17;12.30;1.00
17284;DHT22;8760;52.248;20.952;2022-09-01T01:47:44;12.20;1.00
17284;DHT22;8760;52.248;20.952;2022-09-01T01:50:12;12.20;1.00
17284;DHT22;8760;52.248;20.952;2022-09-01T01:52:39;12.20;1.00
17284;DHT22;8760;52.248;20.952;2022-09-01T01:55:08;12.20;1.00
17284;DHT22;8760;52.248;20.952;2022-09-01T01:57:38;12.10;1.00
17284;DHT22;8760;52.248;20.952;2022-09-01T02:00:16;12.10;1.00
17284;DHT22;8760;52.248;20.952;2022-09-01T02:02:44;12.10;1.00
17284;DHT22;8760;52.248;20.952;2022-09-01T02:05:13;12.10;1.00
17284;DHT22;8760;52.248;20.952;2022-09-01T02:07:45;12.00;1.00
17284;DHT22;8760;52.248;20.952;2022-09-01T02:10:12;12.00;1.00
17284;DHT22;8760;52.248;20.952;2022-09-01T02:12:40;11.90;1.00
17284;DHT22;8760;52.248;20.952;2022-09-01T02:15:08;11.90;1.00
17284;DHT22;8760;52.248;20.952;2022-09-01T02:17:36;11.80;1.00
17284;DHT22;8760;52.248;20.952;2022-09-01T02:20:05;11.80;1.00
17284;DHT22;8760;52.248;20.952;2022-09-01T02:22:31;11.80;1.00
17284;DHT22;8760;52.248;20.952;2022-09-01T02:24:58;11.70;1.00
17284;DHT22;8760;52.248;20.952;2022-09-01T02:27:26;11.70;1.00
17284;DHT22;8760;52.248;20.952;2022-09-01T02:29:56;11.70;1.00
17284;DHT22;8760;52.248;20.952;2022-09-01T02:32:23;11.60;4.00
17284;DHT22;8760;52.248;20.952;2022-09-01T02:34:50;11.60;16.90
17284;DHT22;8760;52.248;20.952;2022-09-01T02:37:22;11.50;17.70
17284;DHT22;8760;52.248;20.952;2022-09-01T02:39:50;11.50;15.30
17284;DHT22;8760;52.248;20.952;2022-09-01T02:42:17;11.50;21.70
17284;DHT22;8760;52.248;20.952;2022-09-01T02:44:52;11.40;28.60
17284;DHT22;8760;52.248;20.952;2022-09-01T02:47:22;11.40;45.40
17284;DHT22;8760;52.248;20.952;2022-09-01T02:49:51;11.30;50.20
17284;DHT22;8760;52.248;20.952;2022-09-01T02:52:18;11.30;47.80
17284;DHT22;8760;52.248;20.952;2022-09-01T02:54:46;11.30;44.80
17284;DHT22;8760;52.248;20.952;2022-09-01T02:57:15;11.30;50.30
17284;DHT22;8760;52.248;20.952;2022-09-01T02:59:42;11.20;68.40
17284;DHT22;8760;52.248;20.952;2022-09-01T03:02:10;11.20;80.80
17284;DHT22;8760;52.248;20.952;2022-09-01T03:04:38;11.10;71.00
17284;DHT22;8760;52.248;20.952;2022-09-01T03:07:05;11.10;78.70
17284;DHT22;8760;52.248;20.952;2022-09-01T03:09:33;11.10;89.70
17284;DHT22;8760;52.248;20.952;2022-09-01T03:12:02;11.10;95.20
17284;DHT22;8760;52.248;20.952;2022-09-01T03:14:31;11.10;90.00
17284;DHT22;8760;52.248;20.952;2022-09-01T03:16:58;11.00;90.90
17284;DHT22;8760;52.248;20.952;2022-09-01T03:19:25;11.00;85.80
17284;DHT22;8760;52.248;20.952;2022-09-01T03:22:02;11.00;90.00
17284;DHT22;8760;52.248;20.952;2022-09-01T03:24:29;10.90;91.90
17284;DHT22;8760;52.248;20.952;2022-09-01T03:26:56;10.90;93.30
17284;DHT22;8760;52.248;20.952;2022-09-01T03:29:23;10.90;96.60
17284;DHT22;8760;52.248;20.952;2022-09-01T03:31:50;10.80;96.50
17284;DHT22;8760;52.248;20.952;2022-09-01T03:34:16;10.90;98.20
17284;DHT22;8760;52.248;20.952;2022-09-01T03:36:48;10.80;99.90
17284;DHT22;8760;52.248;20.952;2022-09-01T03:39:17;10.80;99.90
17284;DHT22;8760;52.248;20.952;2022-09-01T03:41:44;10.80;99.90
17284;DHT22;8760;52.248;20.952;2022-09-01T03:44:11;10.70;99.90
17284;DHT22;8760;52.248;20.952;2022-09-01T03:46:38;10.70;99.90
17284;DHT22;8760;52.248;20.952;2022-09-01T03:49:05;10.70;99.90
17284;DHT22;8760;52.248;20.952;2022-09-01T03:51:34;10.70;99.90
17284;DHT22;8760;52.248;20.952;2022-09-01T03:54:03;10.70;99.90
17284;DHT22;8760;52.248;20.952;2022-09-01T03:56:31;10.70;99.90
17284;DHT22;8760;52.248;20.952;2022-09-01T03:58:59;10.70;99.90
17284;DHT22;8760;52.248;20.952;2022-09-01T04:01:27;10.60;99.90
17284;DHT22;8760;52.248;20.952;2022-09-01T04:03:57;10.70;99.90
17284;DHT22;8760;52.248;20.952;2022-09-01T04:06:25;10.60;99.90
17284;DHT22;8760;52.248;20.952;2022-09-01T04:08:54;10.60;99.90
17284;DHT22;8760;52.248;20.952;2022-09-01T04:11:27;10.60;99.90
17284;DHT22;8760;52.248;20.952;2022-09-01T04:13:56;10.60;99.90
17284;DHT22;8760;52.248;20.952;2022-09-01T04:16:25;10.60;99.90
17284;DHT22;8760;52.248;20.952;2022-09-01T04:19:10;10.60;99.90
17284;DHT22;8760;52.248;20.952;2022-09-01T04:21:44;10.60;99.90
17284;DHT22;8760;52.248;20.952;2022-09-01T04:24:11;10.60;99.90
17284;DHT22;8760;52.248;20.952;2022-09-01T04:26:40;10.60;99.90
17284;DHT22;8760;52.248;20.952;2022-09-01T04:29:08;10.60;99.90
17284;DHT22;8760;52.248;20.952;2022-09-01T04:31:36;10.70;99.90
17284;DHT22;8760;52.248;20.952;2022-09-01T04:34:05;10.70;99.90
17284;DHT22;8760;52.248;20.952;2022-09-01T04:36:39;10.70;99.90
17284;DHT22;8760;52.248;20.952;2022-09-01T04:39:07;10.80;99.90
17284;DHT22;8760;52.248;20.952;2022-09-01T04:41:37;10.80;99.90
17284;DHT22;8760;52.248;20.952;2022-09-01T04:44:05;10.90;99.90
17284;DHT22;8760;52.248;20.952;2022-09-01T04:46:35;10.90;99.90
17284;DHT22;8760;52.248;20.952;2022-09-01T04:49:03;10.90;99.90
17284;DHT22;8760;52.248;20.952;2022-09-01T04:51:32;11.00;99.90
17284;DHT22;8760;52.248;20.952;2022-09-01T04:54:01;11.00;99.90
17284;DHT22;8760;52.248;20.952;2022-09-01T04:56:28;11.10;99.90
17284;DHT22;8760;52.248;20.952;2022-09-01T04:59:00;11.20;99.80
17284;DHT22;8760;52.248;20.952;2022-09-01T05:01:33;11.20;93.60
17284;DHT22;8760;52.248;20.952;2022-09-01T05:04:08;11.30;85.90
17284;DHT22;8760;52.248;20.952;2022-09-01T05:06:39;11.40;81.30
17284;DHT22;8760;52.248;20.952;2022-09-01T05:09:07;11.50;80.00
17284;DHT22;8760;52.248;20.952;2022-09-01T05:11:36;11.50;66.30
17284;DHT22;8760;52.248;20.952;2022-09-01T05:14:04;11.60;56.80
17284;DHT22;8760;52.248;20.952;2022-09-01T05:16:32;11.80;31.70
17284;DHT22;8760;52.248;20.952;2022-09-01T05:19:01;11.80;18.10
17284;DHT22;8760;52.248;20.952;2022-09-01T05:21:28;11.90;10.00
17284;DHT22;8760;52.248;20.952;2022-09-01T05:23:56;12.10;1.00
17284;DHT22;8760;52.248;20.952;2022-09-01T05:26:28;12.20;1.00
17284;DHT22;8760;52.248;20.952;2022-09-01T05:28:58;12.30;1.00
17284;DHT22;8760;52.248;20.952;2022-09-01T05:31:26;12.40;1.00
17284;DHT22;8760;52.248;20.952;2022-09-01T05:34:00;12.50;1.00
17284;DHT22;8760;52.248;20.952;2022-09-01T05:36:27;12.70;1.00
17284;DHT22;8760;52.248;20.952;2022-09-01T05:38:56;12.80;1.00
17284;DHT22;8760;52.248;20.952;2022-09-01T05:41:23;13.00;1.00
17284;DHT22;8760;52.248;20.952;2022-09-01T05:43:50;13.20;1.00
17284;DHT22;8760;52.248;20.952;2022-09-01T05:46:20;13.40;1.00
17284;DHT22;8760;52.248;20.952;2022-09-01T05:48:49;13.60;99.90
17284;DHT22;8760;52.248;20.952;2022-09-01T05:51:20;13.70;99.90
17284;DHT22;8760;52.248;20.952;2022-09-01T05:53:48;13.90;99.90
17284;DHT22;8760;52.248;20.952;2022-09-01T05:56:17;14.10;1.00
17284;DHT22;8760;52.248;20.952;2022-09-01T05:58:44;14.20;1.00
17284;DHT22;8760;52.248;20.952;2022-09-01T06:01:15;14.30;1.00
17284;DHT22;8760;52.248;20.952;2022-09-01T06:03:47;14.50;1.00
17284;DHT22;8760;52.248;20.952;2022-09-01T06:06:14;14.60;1.00
17284;DHT22;8760;52.248;20.952;2022-09-01T06:08:43;14.90;1.00
17284;DHT22;8760;52.248;20.952;2022-09-01T06:11:14;15.20;99.90
17284;DHT22;8760;52.248;20.952;2022-09-01T06:13:43;15.60;1.00
17284;DHT22;8760;52.248;20.952;2022-09-01T06:16:12;15.90;91.90
17284;DHT22;8760;52.248;20.952;2022-09-01T06:18:44;16.10;99.90
17284;DHT22;8760;52.248;20.952;2022-09-01T06:21:11;16.40;40.40
17284;DHT22;8760;52.248;20.952;2022-09-01T06:23:39;16.60;1.00
17284;DHT22;8760;52.248;20.952;2022-09-01T06:26:15;16.50;1.00
17284;DHT22;8760;52.248;20.952;2022-09-01T06:28:42;16.60;1.00
17284;DHT22;8760;52.248;20.952;2022-09-01T06:31:09;16.70;99.90
17284;DHT22;8760;52.248;20.952;2022-09-01T06:33:37;16.80;99.90
17284;DHT22;8760;52.248;20.952;2022-09-01T06:36:05;17.30;99.90
17284;DHT22;8760;52.248;20.952;2022-09-01T06:38:34;17.60;7.30
17284;DHT22;8760;52.248;20.952;2022-09-01T06:41:03;17.80;1.00
17284;DHT22;8760;52.248;20.952;2022-09-01T06:43:34;18.20;1.00
17284;DHT22;8760;52.248;20.952;2022-09-01T06:46:01;18.70;1.00
17284;DHT22;8760;52.248;20.952;2022-09-01T06:48:28;19.10;1.00
17284;DHT22;8760;52.248;20.952;2022-09-01T06:50:59;19.30;99.90
17284;DHT22;8760;52.248;20.952;2022-09-01T06:53:27;19.60;99.90
17284;DHT22;8760;52.248;20.952;2022-09-01T06:55:55;19.90;99.90
17284;DHT22;8760;52.248;20.952;2022-09-01T06:58:22;20.40;99.90
17284;DHT22;8760;52.248;20.952;2022-09-01T07:00:51;20.70;99.90
17284;DHT22;8760;52.248;20.952;2022-09-01T07:03:18;21.10;99.90
17284;DHT22;8760;52.248;20.952;2022-09-01T07:05:47;21.20;99.90
17284;DHT22;8760;52.248;20.952;2022-09-01T07:08:16;21.60;99.90
17284;DHT22;8760;52.248;20.952;2022-09-01T07:10:47;21.80;99.90
17284;DHT22;8760;52.248;20.952;2022-09-01T07:13:16;21.90;99.90
17284;DHT22;8760;52.248;20.952;2022-09-01T07:15:47;22.00;99.90
17284;DHT22;8760;52.248;20.952;2022-09-01T07:18:16;22.40;99.90
17284;DHT22;8760;52.248;20.952;2022-09-01T07:20:46;22.80;99.90
17284;DHT22;8760;52.248;20.952;2022-09-01T07:23:14;23.20;99.90
17284;DHT22;8760;52.248;20.952;2022-09-01T07:25:43;23.30;97.20
17284;DHT22;8760;52.248;20.952;2022-09-01T07:28:12;23.30;90.90
17284;DHT22;8760;52.248;20.952;2022-09-01T07:30:41;23.10;79.10
17284;DHT22;8760;52.248;20.952;2022-09-01T07:33:10;23.10;74.50
17284;DHT22;8760;52.248;20.952;2022-09-01T07:35:40;23.30;68.90
17284;DHT22;8760;52.248;20.952;2022-09-01T07:38:07;23.60;56.80
17284;DHT22;8760;52.248;20.952;2022-09-01T07:40:35;24.20;45.50
17284;DHT22;8760;52.248;20.952;2022-09-01T07:43:04;24.60;33.80
17284;DHT22;8760;52.248;20.952;2022-09-01T07:45:34;24.90;22.10
17284;DHT22;8760;52.248;20.952;2022-09-01T07:48:04;24.60;16.20
17284;DHT22;8760;52.248;20.952;2022-09-01T07:50:32;25.10;13.90
17284;DHT22;8760;52.248;20.952;2022-09-01T07:53:00;25.40;4.30
17284;DHT22;8760;52.248;20.952;2022-09-01T07:55:27;25.40;1.00
17284;DHT22;8760;52.248;20.952;2022-09-01T07:57:55;25.70;1.00
17284;DHT22;8760;52.248;20.952;2022-09-01T08:00:23;25.60;1.00
17284;DHT22;8760;52.248;20.952;2022-09-01T08:02:51;25.80;1.00
17284;DHT22;8760;52.248;20.952;2022-09-01T08:05:18;25.80;1.00
17284;DHT22;8760;52.248;20.952;2022-09-01T08:07:50;25.70;1.00
17284;DHT22;8760;52.248;20.952;2022-09-01T08:10:20;25.10;1.00
17284;DHT22;8760;52.248;20.952;2022-09-01T08:12:47;24.20;1.00
17284;DHT22;8760;52.248;20.952;2022-09-01T08:15:15;23.50;1.00
17284;DHT22;8760;52.248;20.952;2022-09-01T08:17:43;22.80;1.00
17284;DHT22;8760;52.248;20.952;2022-09-01T08:20:12;22.50;1.00
17284;DHT22;8760;52.248;20.952;2022-09-01T08:22:39;21.90;8.80
17284;DHT22;8760;52.248;20.952;2022-09-01T08:25:08;21.40;15.40
17284;DHT22;8760;52.248;20.952;2022-09-01T08:27:37;21.30;28.20
17284;DHT22;8760;52.248;20.952;2022-09-01T08:30:05;21.60;37.30
17284;DHT22;8760;52.248;20.952;2022-09-01T08:32:33;21.80;33.90
17284;DHT22;8760;52.248;20.952;2022-09-01T08:35:00;21.30;34.20
17284;DHT22;8760;52.248;20.952;2022-09-01T08:37:28;20.90;41.00
17284;DHT22;8760;52.248;20.952;2022-09-01T08:39:55;20.70;40.40
17284;DHT22;8760;52.248;20.952;2022-09-01T08:42:36;20.70;54.10
17284;DHT22;8760;52.248;20.952;2022-09-01T08:45:14;21.70;62.40
17284;DHT22;8760;52.248;20.952;2022-09-01T08:47:45;23.10;21.80
17284;DHT22;8760;52.248;20.952;2022-09-01T08:50:12;24.60;1.00
17284;DHT22;8760;52.248;20.952;2022-09-01T08:52:48;25.50;1.00
17284;DHT22;8760;52.248;20.952;2022-09-01T08:55:19;26.10;1.00
17284;DHT22;8760;52.248;20.952;2022-09-01T08:57:50;26.80;1.00
17284;DHT22;8760;52.248;20.952;2022-09-01T09:00:23;27.30;1.00
17284;DHT22;8760;52.248;20.952;2022-09-01T09:02:58;27.60;1.00
17284;DHT22;8760;52.248;20.952;2022-09-01T09:05:34;28.10;1.00
17284;DHT22;8760;52.248;20.952;2022-09-01T09:08:17;27.60;1.00
17284;DHT22;8760;52.248;20.952;2022-09-01T09:10:55;26.70;1.00
17284;DHT22;8760;52.248;20.952;2022-09-01T09:13:31;25.70;1.00
17284;DHT22;8760;52.248;20.952;2022-09-01T09:16:05;26.00;1.00
17284;DHT22;8760;52.248;20.952;2022-09-01T09:18:39;26.80;1.00
17284;DHT22;8760;52.248;20.952;2022-09-01T09:21:13;26.30;1.00
17284;DHT22;8760;52.248;20.952;2022-09-01T09:23:44;25.80;1.00
17284;DHT22;8760;52.248;20.952;2022-09-01T09:26:11;25.50;1.00
17284;DHT22;8760;52.248;20.952;2022-09-01T09:28:38;25.10;1.00
17284;DHT22;8760;52.248;20.952;2022-09-01T09:31:27;24.90;1.00
17284;DHT22;8760;52.248;20.952;2022-09-01T09:33:55;25.50;1.00
17284;DHT22;8760;52.248;20.952;2022-09-01T09:36:28;25.30;1.00
17284;DHT22;8760;52.248;20.952;2022-09-01T09:39:07;25.10;1.00
17284;DHT22;8760;52.248;20.952;2022-09-01T09:41:35;25.40;1.00
17284;DHT22;8760;52.248;20.952;2022-09-01T09:44:06;26.30;1.00
17284;DHT22;8760;52.248;20.952;2022-09-01T09:46:41;27.20;1.00
17284;DHT22;8760;52.248;20.952;2022-09-01T09:49:16;28.20;1.00
17284;DHT22;8760;52.248;20.952;2022-09-01T09:51:46;28.30;1.00
17284;DHT22;8760;52.248;20.952;2022-09-01T09:54:19;28.10;1.00
17284;DHT22;8760;52.248;20.952;2022-09-01T09:56:47;27.50;1.00
17284;DHT22;8760;52.248;20.952;2022-09-01T09:59:22;26.50;1.00
17284;DHT22;8760;52.248;20.952;2022-09-01T10:01:56;25.50;1.00
17284;DHT22;8760;52.248;20.952;2022-09-01T10:04:35;25.90;1.00
17284;DHT22;8760;52.248;20.952;2022-09-01T10:07:29;25.90;1.00
17284;DHT22;8760;52.248;20.952;2022-09-01T10:09:57;25.70;1.00
17284;DHT22;8760;52.248;20.952;2022-09-01T10:12:26;25.60;1.00
17284;DHT22;8760;52.248;20.952;2022-09-01T10:14:57;25.50;1.00
17284;DHT22;8760;52.248;20.952;2022-09-01T10:17:31;26.20;1.00
17284;DHT22;8760;52.248;20.952;2022-09-01T10:20:02;26.90;1.00
17284;DHT22;8760;52.248;20.952;2022-09-01T10:22:33;27.40;1.00
17284;DHT22;8760;52.248;20.952;2022-09-01T10:25:01;27.60;1.00
17284;DHT22;8760;52.248;20.952;2022-09-01T10:27:31;27.90;1.00
17284;DHT22;8760;52.248;20.952;2022-09-01T10:30:04;28.50;1.00
17284;DHT22;8760;52.248;20.952;2022-09-01T10:32:36;28.90;1.00
17284;DHT22;8760;52.248;20.952;2022-09-01T10:35:06;29.40;1.00
17284;DHT22;8760;52.248;20.952;2022-09-01T10:37:36;29.60;1.00
17284;DHT22;8760;52.248;20.952;2022-09-01T10:43:21;28.00;1.00
17284;DHT22;8760;52.248;20.952;2022-09-01T10:45:46;27.70;1.00
17284;DHT22;8760;52.248;20.952;2022-09-01T10:48:26;27.60;1.00
17284;DHT22;8760;52.248;20.952;2022-09-01T10:54:00;27.30;1.00
17284;DHT22;8760;52.248;20.952;2022-09-01T10:56:37;27.20;1.00
17284;DHT22;8760;52.248;20.952;2022-09-01T10:59:07;26.70;1.00
17284;DHT22;8760;52.248;20.952;2022-09-01T11:02:13;26.30;1.00
17284;DHT22;8760;52.248;20.952;2022-09-01T11:05:11;25.90;1.00
17284;DHT22;8760;52.248;20.952;2022-09-01T11:07:39;25.60;1.00
17284;DHT22;8760;52.248;20.952;2022-09-01T11:10:32;25.60;1.00
17284;DHT22;8760;52.248;20.952;2022-09-01T11:13:30;25.20;1.00
17284;DHT22;8760;52.248;20.952;2022-09-01T11:16:31;24.70;1.00
17284;DHT22;8760;52.248;20.952;2022-09-01T11:19:27;24.70;1.00
17284;DHT22;8760;52.248;20.952;2022-09-01T11:22:27;24.70;1.00
17284;DHT22;8760;52.248;20.952;2022-09-01T11:25:30;24.30;1.00
17284;DHT22;8760;52.248;20.952;2022-09-01T11:28:03;23.90;1.00
17284;DHT22;8760;52.248;20.952;2022-09-01T11:30:42;23.90;1.00
17284;DHT22;8760;52.248;20.952;2022-09-01T11:33:40;23.80;1.00
17284;DHT22;8760;52.248;20.952;2022-09-01T11:36:14;23.70;1.00
17284;DHT22;8760;52.248;20.952;2022-09-01T11:38:49;23.40;1.00
17284;DHT22;8760;52.248;20.952;2022-09-01T11:41:21;23.20;1.00
17284;DHT22;8760;52.248;20.952;2022-09-01T11:43:50;23.20;1.00
17284;DHT22;8760;52.248;20.952;2022-09-01T11:46:21;23.10;1.00
17284;DHT22;8760;52.248;20.952;2022-09-01T11:48:50;22.70;1.00
17284;DHT22;8760;52.248;20.952;2022-09-01T11:51:17;22.50;1.00
17284;DHT22;8760;52.248;20.952;2022-09-01T11:53:47;22.20;1.00
17284;DHT22;8760;52.248;20.952;2022-09-01T11:56:17;22.00;1.00
17284;DHT22;8760;52.248;20.952;2022-09-01T11:58:46;22.20;1.00
17284;DHT22;8760;52.248;20.952;2022-09-01T12:01:16;22.30;1.00
17284;DHT22;8760;52.248;20.952;2022-09-01T12:03:44;22.50;1.00
17284;DHT22;8760;52.248;20.952;2022-09-01T12:06:18;22.60;1.00
17284;DHT22;8760;52.248;20.952;2022-09-01T12:08:54;22.70;1.00
17284;DHT22;8760;52.248;20.952;2022-09-01T12:11:23;23.00;1.00
17284;DHT22;8760;52.248;20.952;2022-09-01T12:13:56;23.10;1.00
17284;DHT22;8760;52.248;20.952;2022-09-01T12:16:24;23.30;1.00
17284;DHT22;8760;52.248;20.952;2022-09-01T12:18:52;23.00;1.00
17284;DHT22;8760;52.248;20.952;2022-09-01T12:21:22;22.80;1.00
17284;DHT22;8760;52.248;20.952;2022-09-01T12:23:48;22.40;1.00
17284;DHT22;8760;52.248;20.952;2022-09-01T12:26:24;22.20;1.00
17284;DHT22;8760;52.248;20.952;2022-09-01T12:28:51;21.90;1.00
17284;DHT22;8760;52.248;20.952;2022-09-01T12:31:22;21.70;1.00
17284;DHT22;8760;52.248;20.952;2022-09-01T12:33:51;21.60;1.00
17284;DHT22;8760;52.248;20.952;2022-09-01T12:36:21;21.60;1.00
17284;DHT22;8760;52.248;20.952;2022-09-01T12:38:49;21.80;1.00
17284;DHT22;8760;52.248;20.952;2022-09-01T12:41:30;21.90;1.00
17284;DHT22;8760;52.248;20.952;2022-09-01T12:44:25;22.00;1.00
17284;DHT22;8760;52.248;20.952;2022-09-01T12:46:53;22.20;1.00
17284;DHT22;8760;52.248;20.952;2022-09-01T12:49:23;22.10;1.00
17284;DHT22;8760;52.248;20.952;2022-09-01T12:52:05;22.10;1.00
17284;DHT22;8760;52.248;20.952;2022-09-01T12:54:32;22.20;1.00
17284;DHT22;8760;52.248;20.952;2022-09-01T12:57:00;22.20;1.00
17284;DHT22;8760;52.248;20.952;2022-09-01T12:59:28;22.10;1.00
17284;DHT22;8760;52.248;20.952;2022-09-01T13:01:54;22.00;1.00
17284;DHT22;8760;52.248;20.952;2022-09-01T13:04:27;22.00;1.00
17284;DHT22;8760;52.248;20.952;2022-09-01T13:06:59;21.90;1.00
17284;DHT22;8760;52.248;20.952;2022-09-01T13:09:26;21.80;1.00
17284;DHT22;8760;52.248;20.952;2022-09-01T13:12:10;21.50;1.00
17284;DHT22;8760;52.248;20.952;2022-09-01T13:14:37;21.40;1.00
17284;DHT22;8760;52.248;20.952;2022-09-01T13:17:03;21.10;1.00
17284;DHT22;8760;52.248;20.952;2022-09-01T13:19:30;20.90;1.00
17284;DHT22;8760;52.248;20.952;2022-09-01T13:21:57;20.80;1.00
17284;DHT22;8760;52.248;20.952;2022-09-01T13:24:24;20.70;1.00
17284;DHT22;8760;52.248;20.952;2022-09-01T13:26:51;20.50;1.00
17284;DHT22;8760;52.248;20.952;2022-09-01T13:29:23;20.40;1.00
17284;DHT22;8760;52.248;20.952;2022-09-01T13:31:50;20.20;1.00
17284;DHT22;8760;52.248;20.952;2022-09-01T13:34:16;20.20;1.00
17284;DHT22;8760;52.248;20.952;2022-09-01T13:36:44;20.30;1.00
17284;DHT22;8760;52.248;20.952;2022-09-01T13:39:11;20.20;1.00
17284;DHT22;8760;52.248;20.952;2022-09-01T13:41:38;20.20;1.00
17284;DHT22;8760;52.248;20.952;2022-09-01T13:44:05;20.30;1.00
17284;DHT22;8760;52.248;20.952;2022-09-01T13:46:36;20.40;1.00
17284;DHT22;8760;52.248;20.952;2022-09-01T13:49:03;20.60;1.00
17284;DHT22;8760;52.248;20.952;2022-09-01T13:51:30;20.80;1.00
17284;DHT22;8760;52.248;20.952;2022-09-01T13:53:57;21.00;1.00
17284;DHT22;8760;52.248;20.952;2022-09-01T13:56:24;21.20;1.00
17284;DHT22;8760;52.248;20.952;2022-09-01T13:58:51;21.50;1.00
17284;DHT22;8760;52.248;20.952;2022-09-01T14:01:17;21.50;1.00
17284;DHT22;8760;52.248;20.952;2022-09-01T14:03:45;21.40;1.00
17284;DHT22;8760;52.248;20.952;2022-09-01T14:06:13;21.30;1.00
17284;DHT22;8760;52.248;20.952;2022-09-01T14:08:39;21.20;1.00
17284;DHT22;8760;52.248;20.952;2022-09-01T14:11:06;21.00;1.00
17284;DHT22;8760;52.248;20.952;2022-09-01T14:13:33;20.90;1.00
17284;DHT22;8760;52.248;20.952;2022-09-01T14:16:01;20.80;1.00
17284;DHT22;8760;52.248;20.952;2022-09-01T14:18:34;20.70;1.00
17284;DHT22;8760;52.248;20.952;2022-09-01T14:21:04;20.50;1.00
17284;DHT22;8760;52.248;20.952;2022-09-01T14:23:35;20.40;1.00
17284;DHT22;8760;52.248;20.952;2022-09-01T14:26:06;20.40;1.00
17284;DHT22;8760;52.248;20.952;2022-09-01T14:28:33;20.50;1.00
17284;DHT22;8760;52.248;20.952;2022-09-01T14:31:00;20.50;1.00
17284;DHT22;8760;52.248;20.952;2022-09-01T14:33:30;20.70;1.00
17284;DHT22;8760;52.248;20.952;2022-09-01T14:35:58;20.70;1.00
17284;DHT22;8760;52.248;20.952;2022-09-01T14:38:26;20.70;1.00
17284;DHT22;8760;52.248;20.952;2022-09-01T14:40:53;20.60;1.00
17284;DHT22;8760;52.248;20.952;2022-09-01T14:43:20;20.50;1.00
17284;DHT22;8760;52.248;20.952;2022-09-01T14:45:47;20.40;1.00
17284;DHT22;8760;52.248;20.952;2022-09-01T14:48:15;20.40;1.00
17284;DHT22;8760;52.248;20.952;2022-09-01T14:50:44;20.40;1.00
17284;DHT22;8760;52.248;20.952;2022-09-01T14:53:11;20.50;1.00
17284;DHT22;8760;52.248;20.952;2022-09-01T14:55:40;20.70;1.00
17284;DHT22;8760;52.248;20.952;2022-09-01T14:58:07;21.00;1.00
17284;DHT22;8760;52.248;20.952;2022-09-01T15:00:34;21.10;1.00
17284;DHT22;8760;52.248;20.952;2022-09-01T15:03:01;21.30;1.00
17284;DHT22;8760;52.248;20.952;2022-09-01T15:05:28;21.40;1.00
17284;DHT22;8760;52.248;20.952;2022-09-01T15:07:55;21.60;1.00
17284;DHT22;8760;52.248;20.952;2022-09-01T15:10:24;21.70;1.00
17284;DHT22;8760;52.248;20.952;2022-09-01T15:12:53;21.90;1.00
17284;DHT22;8760;52.248;20.952;2022-09-01T15:15:21;22.10;1.00
17284;DHT22;8760;52.248;20.952;2022-09-01T15:17:48;22.40;1.00
17284;DHT22;8760;52.248;20.952;2022-09-01T15:20:15;22.40;1.00
17284;DHT22;8760;52.248;20.952;2022-09-01T15:23:01;22.20;1.00
17284;DHT22;8760;52.248;20.952;2022-09-01T15:25:29;22.30;1.00
17284;DHT22;8760;52.248;20.952;2022-09-01T15:27:57;22.00;1.00
17284;DHT22;8760;52.248;20.952;2022-09-01T15:30:24;21.80;1.00
17284;DHT22;8760;52.248;20.952;2022-09-01T15:32:53;21.50;1.00
17284;DHT22;8760;52.248;20.952;2022-09-01T15:35:20;21.20;1.00
17284;DHT22;8760;52.248;20.952;2022-09-01T15:37:49;21.00;1.00
17284;DHT22;8760;52.248;20.952;2022-09-01T15:40:17;21.00;1.00
17284;DHT22;8760;52.248;20.952;2022-09-01T15:42:44;20.90;1.00
17284;DHT22;8760;52.248;20.952;2022-09-01T15:45:15;20.80;1.00
17284;DHT22;8760;52.248;20.952;2022-09-01T15:47:43;20.70;1.00
17284;DHT22;8760;52.248;20.952;2022-09-01T15:50:12;20.60;1.00
17284;DHT22;8760;52.248;20.952;2022-09-01T15:52:49;20.50;1.00
17284;DHT22;8760;52.248;20.952;2022-09-01T15:55:17;20.40;1.00
17284;DHT22;8760;52.248;20.952;2022-09-01T15:57:45;20.30;1.00
17284;DHT22;8760;52.248;20.952;2022-09-01T16:00:14;20.20;1.00
17284;DHT22;8760;52.248;20.952;2022-09-01T16:02:42;20.10;1.00
17284;DHT22;8760;52.248;20.952;2022-09-01T16:05:09;20.00;1.00